Time;durP1;ratioP1;P1;durP2;ratioP2;P2;SDS_P1;SDS_P2;PMS_P1;PMS_P2;Temp;Humidity;BMP_temperature;BMP_pressure;BME280_temperature;BME280_humidity;BME280_pressure;Samples;Min_cycle;Max_cycle;Signal;HPM_P1;HPM_P2
2021/04/01 00:00:47;;;;;;;6.40;5.30;;;7.70;1.40;;;8.54;70.07;95777.87;640187;221;24532;-73
2021/04/01 00:03:16;;;;;;;9.00;6.40;;;7.80;1.40;;;8.56;69.92;95780.64;642256;221;24587;-73
2021/04/01 00:05:45;;;;;;;7.60;5.80;;;7.80;1.40;;;8.60;69.78;95769.36;639604;221;29917;-72
2021/04/01 00:08:15;;;;;;;7.20;4.50;;;7.80;1.40;;;8.58;70.08;95767.87;639523;221;24505;-73
2021/04/01 00:10:43;;;;;;;5.90;5.27;;;7.70;1.40;;;8.54;70.32;95765.66;643018;221;25557;-72
2021/04/01 00:13:13;;;;;;;6.80;6.10;;;7.60;1.40;;;8.53;70.47;95766.42;633098;221;31737;-73
2021/04/01 00:15:42;;;;;;;8.90;5.27;;;7.60;1.40;;;8.52;70.76;95759.62;639264;221;23460;-73
2021/04/01 00:18:12;;;;;;;5.70;5.00;;;7.60;1.40;;;8.57;70.75;95757.34;638739;221;24505;-73
2021/04/01 00:20:41;;;;;;;6.80;5.00;;;7.70;1.40;;;8.62;70.98;95754.16;640380;221;24494;-73
2021/04/01 00:23:10;;;;;;;9.53;5.10;;;7.70;1.40;;;8.68;70.72;95752.42;642365;221;26599;-73
2021/04/01 00:25:39;;;;;;;6.73;4.90;;;7.90;1.40;;;8.67;70.52;95751.12;633414;221;24559;-70
2021/04/01 00:28:09;;;;;;;6.87;5.60;;;7.80;1.40;;;8.71;71.23;95755.53;628856;225;24566;-70
2021/04/01 00:30:38;;;;;;;7.07;5.33;;;7.90;1.40;;;8.64;71.45;95753.32;628730;225;24619;-71
2021/04/01 00:35:51;;;;;;;8.88;5.40;;;7.80;1.40;;;8.74;71.33;95741.55;648348;212;31591;-70
2021/04/01 00:38:21;;;;;;;7.82;5.87;;;7.90;1.40;;;8.78;71.17;95743.05;634382;221;31763;-71
2021/04/01 00:40:50;;;;;;;8.13;5.43;;;7.90;1.40;;;8.83;71.27;95742.52;634893;221;31727;-71
2021/04/01 00:43:19;;;;;;;8.97;5.80;;;7.90;1.40;;;8.85;71.24;95737.62;641706;221;24533;-71
2021/04/01 00:45:48;;;;;;;6.00;5.03;;;8.00;1.40;;;8.86;71.49;95742.48;640271;221;24514;-71
2021/04/01 00:48:17;;;;;;;6.70;4.70;;;8.00;1.40;;;8.80;71.90;95744.60;641727;220;24499;-71
2021/04/01 00:50:46;;;;;;;6.77;5.30;;;7.90;1.40;;;8.74;72.03;95740.55;642686;221;24520;-72
2021/04/01 00:53:16;;;;;;;6.80;5.33;;;7.90;1.40;;;8.61;72.13;95735.46;637731;221;24494;-71
2021/04/01 00:55:45;;;;;;;6.50;4.67;;;7.80;1.40;;;8.53;72.96;95740.64;640506;221;24841;-72
2021/04/01 00:58:14;;;;;;;6.53;4.63;;;7.70;1.40;;;8.50;72.90;95739.86;638347;221;25587;-71
2021/04/01 01:00:43;;;;;;;6.67;5.17;;;7.70;1.40;;;8.41;73.10;95742.53;638889;221;31950;-71
2021/04/01 01:03:12;;;;;;;8.13;5.20;;;7.60;1.40;;;8.36;73.16;95744.66;640395;221;30841;-71
2021/04/01 01:05:41;;;;;;;6.50;4.33;;;7.40;1.40;;;8.36;73.48;95735.84;641646;221;24494;-71
2021/04/01 01:08:10;;;;;;;6.37;4.77;;;7.40;1.40;;;8.37;73.65;95735.81;639308;221;25572;-71
2021/04/01 01:10:39;;;;;;;7.20;4.77;;;7.40;1.40;;;8.47;73.30;95736.32;639515;221;24536;-71
2021/04/01 01:13:08;;;;;;;18.00;8.40;;;7.60;1.40;;;8.54;73.25;95733.83;640691;221;24495;-71
2021/04/01 01:15:37;;;;;;;17.70;11.73;;;7.70;1.40;;;8.60;72.86;95735.42;633748;220;31811;-71
2021/04/01 01:18:07;;;;;;;14.10;8.67;;;7.80;1.40;;;8.67;72.52;95731.03;639184;221;23450;-71
2021/04/01 01:20:36;;;;;;;9.50;6.97;;;7.80;1.40;;;8.69;72.47;95731.55;641119;221;24581;-71
2021/04/01 01:23:07;;;;;;;7.03;5.50;;;7.70;1.40;;;8.69;72.13;95730.78;642758;220;24510;-71
2021/04/01 01:25:36;;;;;;;7.03;5.23;;;7.80;1.40;;;8.79;72.02;95727.53;643391;221;25847;-71
2021/04/01 01:28:05;;;;;;;6.80;5.07;;;7.90;1.40;;;8.75;71.80;95726.53;640425;221;24498;-71
2021/04/01 01:30:34;;;;;;;9.47;7.63;;;7.90;1.40;;;8.77;71.90;95725.87;640385;221;24541;-71
2021/04/01 01:35:52;;;;;;;8.07;5.07;;;8.00;1.40;;;8.79;71.58;95722.28;620013;225;31906;-72
2021/04/01 01:38:20;;;;;;;6.55;5.43;;;8.00;1.40;;;8.88;71.39;95721.05;610717;229;32169;-73
2021/04/01 01:40:50;;;;;;;7.10;4.90;;;8.10;1.40;;;8.86;71.46;95719.02;615813;230;26028;-72
2021/04/01 01:43:19;;;;;;;7.90;5.00;;;8.10;1.40;;;8.82;71.39;95720.04;616441;229;24588;-72
2021/04/01 01:45:48;;;;;;;5.50;4.33;;;8.00;1.40;;;8.79;71.51;95717.63;615383;229;24586;-73
2021/04/01 01:48:17;;;;;;;6.87;4.33;;;8.00;1.40;;;8.77;71.76;95715.77;615612;230;25689;-73
2021/04/01 01:50:46;;;;;;;5.10;4.60;;;8.00;1.40;;;8.79;71.58;95716.02;617847;230;24932;-73
2021/04/01 01:53:15;;;;;;;6.30;5.00;;;7.90;1.40;;;8.81;70.72;95714.42;617840;230;24616;-73
2021/04/01 01:55:44;;;;;;;6.70;4.60;;;8.00;1.40;;;8.83;71.35;95712.73;614153;230;24618;-73
2021/04/01 01:58:13;;;;;;;7.67;4.97;;;7.90;1.40;;;8.83;70.95;95712.63;617590;229;24585;-72
2021/04/01 02:00:45;;;;;;;6.77;4.80;;;8.10;1.40;;;8.84;71.06;95711.84;617893;229;24608;-73
2021/04/01 02:03:13;;;;;;;7.03;4.23;;;8.10;1.40;;;8.84;71.02;95710.49;627985;226;25700;-73
2021/04/01 02:05:42;;;;;;;6.47;5.13;;;8.10;1.40;;;8.85;71.19;95715.89;627128;225;25624;-73
2021/04/01 02:08:11;;;;;;;8.15;5.18;;;8.00;1.40;;;8.82;71.59;95713.39;622589;224;31915;-73
2021/04/01 02:10:46;;;;;;;5.30;4.33;;;8.00;1.40;;;8.69;72.14;95711.39;630211;225;23494;-73
2021/04/01 02:13:15;;;;;;;7.83;4.90;;;7.90;1.40;;;8.58;72.64;95705.88;627408;225;24921;-73
2021/04/01 02:15:44;;;;;;;7.57;4.63;;;7.80;1.40;;;8.53;72.97;95705.62;627668;225;25620;-73
2021/04/01 02:18:15;;;;;;;7.60;4.83;;;7.70;1.40;;;8.55;72.71;95699.12;614189;230;28192;-72
2021/04/01 02:20:46;;;;;;;5.03;4.57;;;7.70;1.40;;;8.48;73.21;95702.32;631028;226;24576;-72
2021/04/01 02:23:17;;;;;;;4.67;4.10;;;7.60;1.40;;;8.45;73.67;95698.67;618188;230;30055;-73
2021/04/01 02:25:46;;;;;;;5.57;4.90;;;7.60;1.40;;;8.50;73.42;95696.09;622896;225;24603;-72
2021/04/01 02:28:15;;;;;;;6.70;4.13;;;7.70;1.40;;;8.57;73.16;95696.21;614888;231;28939;-73
2021/04/01 02:30:44;;;;;;;10.10;4.73;;;7.70;1.40;;;8.51;73.37;95697.27;619106;230;24716;-72
2021/04/01 02:35:51;;;;;;;7.25;5.00;;;7.60;1.40;;;8.49;73.57;95693.98;646327;216;31561;-71
2021/04/01 02:38:20;;;;;;;6.70;4.50;;;7.70;1.40;;;8.48;73.76;95694.76;640950;220;23516;-71
2021/04/01 02:40:49;;;;;;;5.43;4.23;;;7.70;1.40;;;8.55;73.33;95690.36;641617;221;24524;-73
2021/04/01 02:45:53;;;;;;;5.80;4.60;;;7.60;1.40;;;8.37;73.84;95686.87;640053;221;25603;-71
2021/04/01 02:50:56;;;;;;;6.12;4.40;;;7.50;1.40;;;8.24;74.47;95683.69;648551;216;31593;-72
2021/04/01 02:53:25;;;;;;;6.97;4.90;;;7.40;1.40;;;8.39;74.01;95679.77;643984;221;26765;-71
2021/04/01 02:55:54;;;;;;;9.30;4.30;;;7.60;1.40;;;8.39;73.79;95684.31;648563;220;24529;-72
2021/04/01 02:58:23;;;;;;;7.10;4.33;;;7.50;1.40;;;8.37;74.19;95685.25;647448;220;24482;-72
2021/04/01 03:00:53;;;;;;;5.30;4.50;;;7.60;1.40;;;8.40;74.07;95686.30;669511;211;26528;-72
2021/04/01 03:03:26;;;;;;;5.23;3.80;;;7.60;1.40;;;8.40;74.02;95681.27;670884;211;24956;-72
2021/04/01 03:05:50;;;;;;;7.60;4.20;;;7.50;1.40;;;8.37;74.06;95680.33;667406;211;28435;-72
2021/04/01 03:08:19;;;;;;;7.03;4.30;;;7.50;1.40;;;8.31;74.33;95682.38;670315;211;24940;-72
2021/04/01 03:10:49;;;;;;;5.10;4.07;;;7.40;1.40;;;8.33;74.10;95680.53;664013;211;31380;-72
2021/04/01 03:13:18;;;;;;;6.80;4.90;;;7.40;1.40;;;8.32;74.15;95676.80;672393;211;23473;-72
2021/04/01 03:18:21;;;;;;;5.20;4.60;;;7.40;1.40;;;8.29;74.25;95675.97;621356;226;31932;-72
2021/04/01 03:20:50;;;;;;;8.33;4.73;;;7.50;1.40;;;8.34;74.22;95673.73;617606;230;23639;-72
2021/04/01 03:23:19;;;;;;;9.00;5.20;;;7.50;1.40;;;8.41;73.74;95672.63;619468;229;25762;-72
2021/04/01 03:25:48;;;;;;;4.63;4.07;;;7.60;1.40;;;8.43;73.59;95675.78;615940;229;24674;-72
2021/04/01 03:28:18;;;;;;;7.90;5.00;;;7.60;1.40;;;8.42;73.67;95674.23;617080;230;24597;-71
2021/04/01 03:30:54;;;;;;;8.50;4.80;;;7.70;1.40;;;8.40;73.97;95673.83;615984;230;26665;-72
2021/04/01 03:35:52;;;;;;;6.45;4.32;;;7.60;1.40;;;8.31;74.67;95670.88;644656;212;31809;-70
2021/04/01 03:40:55;;;;;;;6.68;4.40;;;7.50;1.40;;;8.22;75.04;95672.86;619579;226;31916;-72
2021/04/01 03:43:26;;;;;;;11.00;4.50;;;7.40;1.40;;;8.23;75.02;95674.67;618631;230;24860;-72
2021/04/01 03:45:55;;;;;;;7.57;4.10;;;7.40;1.40;;;8.23;75.10;95671.92;628376;225;24597;-72
2021/04/01 03:48:23;;;;;;;4.80;3.70;;;7.40;1.40;;;8.18;75.13;95676.07;617097;229;24582;-73
2021/04/01 03:50:52;;;;;;;6.30;4.03;;;7.40;1.40;;;8.07;75.63;95674.14;619615;228;32325;-73
2021/04/01 03:53:21;;;;;;;6.78;4.20;;;7.30;1.40;;;8.16;75.38;95671.25;624110;225;43176;-72
2021/04/01 03:55:51;;;;;;;4.40;4.00;;;7.30;1.40;;;8.08;75.65;95671.00;622630;229;24701;-72
2021/04/01 04:01:38;;;;;;;9.18;4.15;;;7.20;1.40;;;8.04;75.84;95666.92;651439;216;31801;-70
2021/04/01 04:14:37;;;;;;;5.50;3.90;;;7.30;1.40;;;7.99;75.89;95660.69;643876;221;24653;-70
2021/04/01 04:17:02;;;;;;;4.20;3.40;;;7.20;1.40;;;7.97;75.84;95658.64;653301;216;24458;-70
2021/04/01 04:22:06;;;;;;;6.35;3.87;;;7.20;1.40;;;8.00;75.52;95655.41;646998;216;31563;-70
2021/04/01 04:24:36;;;;;;;7.00;3.47;;;7.20;1.40;;;8.02;75.42;95656.74;640012;221;23442;-72
2021/04/01 04:27:21;;;;;;;5.13;4.23;;;7.20;1.40;;;7.94;75.28;95655.27;630161;224;24563;-70
2021/04/01 04:29:35;;;;;;;6.33;3.93;;;7.10;1.40;;;7.79;75.99;95654.39;657571;215;24437;-69
2021/04/01 04:32:05;;;;;;;6.17;3.87;;;6.80;1.40;;;7.72;76.55;95653.52;657224;215;24449;-70
2021/04/01 04:35:51;;;;;;;7.60;3.90;;;6.80;1.40;;;7.77;76.24;95657.75;647200;212;31634;-72
2021/04/01 04:38:20;;;;;;;5.10;4.60;;;7.00;1.40;;;7.73;76.12;95657.45;639880;221;23533;-69
2021/04/01 04:40:54;;;;;;;4.70;4.17;;;6.90;1.40;;;7.69;76.48;95657.44;642637;221;25892;-70
2021/04/01 04:43:18;;;;;;;7.50;4.12;;;6.90;1.40;;;7.64;76.38;95660.98;636895;221;42391;-70
2021/04/01 04:45:47;;;;;;;4.57;4.07;;;6.80;1.40;;;7.60;76.47;95658.77;642171;220;24584;-70
2021/04/01 04:48:16;;;;;;;4.23;3.67;;;6.70;1.40;;;7.57;76.75;95666.83;641347;221;24596;-70
2021/04/01 04:53:20;;;;;;;5.93;4.62;;;6.70;1.40;;;7.52;76.53;95671.23;645947;212;31607;-70
2021/04/01 04:58:30;;;;;;;6.73;4.00;;;6.40;1.40;;;7.44;77.59;95665.23;639420;221;24537;-71
2021/04/01 05:01:03;;;;;;;5.70;3.60;;;6.70;1.40;;;7.45;77.41;95673.05;641823;221;26214;-71
2021/04/01 05:05:58;;;;;;;7.55;4.20;;;6.90;1.40;;;7.58;76.49;95674.10;647801;216;31636;-71
2021/04/01 05:11:01;;;;;;;7.70;4.70;;;6.80;1.40;;;7.64;76.08;95669.02;644378;212;31721;-70
2021/04/01 05:13:30;;;;;;;5.53;4.60;;;6.90;1.40;;;7.65;76.07;95670.69;643232;221;23440;-71
2021/04/01 05:15:59;;;;;;;5.27;3.90;;;6.80;1.40;;;7.66;75.87;95670.68;640935;220;28787;-70
2021/04/01 05:18:30;;;;;;;4.50;3.73;;;6.90;1.40;;;7.87;74.87;95670.98;631606;221;24527;-71
2021/04/01 05:20:58;;;;;;;4.97;4.33;;;7.10;1.40;;;8.01;74.48;95669.88;655807;215;31412;-71
2021/04/01 05:23:36;;;;;;;5.73;4.03;;;7.30;1.40;;;8.06;74.26;95668.21;641933;219;24361;-71
2021/04/01 05:28:42;;;;;;;6.10;3.70;;;7.30;1.40;;;8.18;73.71;95668.16;647188;216;31581;-73
2021/04/01 05:31:12;;;;;;;6.07;3.80;;;7.30;1.40;;;8.35;73.02;95667.30;640460;221;23459;-72
2021/04/01 05:35:51;;;;;;;5.03;3.50;;;7.60;1.40;;;8.49;72.31;95668.27;645869;212;31611;-72
2021/04/01 05:40:54;;;;;;;7.55;3.90;;;7.80;1.40;;;8.68;70.94;95674.48;648223;212;31596;-72
2021/04/01 05:43:25;;;;;;;5.57;3.90;;;8.00;1.40;;;8.84;70.39;95678.70;641431;221;23831;-72
2021/04/01 05:45:57;;;;;;;7.17;4.30;;;8.10;1.40;;;8.93;69.93;95680.36;641119;220;24508;-73
2021/04/01 05:48:31;;;;;;;8.03;4.30;;;8.20;1.40;;;9.03;69.72;95684.19;639523;220;25164;-73
2021/04/01 05:54:38;;;;;;;5.80;3.35;;;8.40;1.40;;;9.37;68.47;95683.70;647336;216;31628;-72
2021/04/01 05:59:42;;;;;;;5.75;3.42;;;8.70;1.40;;;9.56;68.17;95689.31;647385;216;31559;-76
2021/04/01 06:02:11;;;;;;;8.20;3.80;;;8.80;1.40;;;9.65;68.02;95684.96;643010;221;23451;-75
2021/04/01 06:04:39;;;;;;;9.83;3.90;;;8.90;1.40;;;9.78;67.96;95692.12;639409;221;24516;-75
2021/04/01 06:07:13;;;;;;;9.77;4.80;;;9.00;1.40;;;9.90;67.13;95689.80;633886;220;43815;-75
2021/04/01 06:09:42;;;;;;;5.23;4.57;;;9.10;1.40;;;9.99;66.95;95688.02;639059;221;29814;-75
2021/04/01 06:12:07;;;;;;;8.07;5.20;;;9.20;1.40;;;10.14;66.52;95691.83;642652;220;24555;-74
2021/04/01 06:14:59;;;;;;;6.32;4.53;;;9.40;1.40;;;10.24;66.67;95690.80;635327;221;31688;-74
2021/04/01 06:17:28;;;;;;;6.15;4.00;;;9.40;1.40;;;10.42;66.15;95687.55;635893;220;31751;-74
2021/04/01 06:19:58;;;;;;;6.47;4.37;;;9.60;1.40;;;10.58;65.86;95692.84;640160;221;25057;-74
2021/04/01 06:22:28;;;;;;;5.07;3.70;;;9.80;1.40;;;10.72;66.10;95691.16;652416;218;24495;-75
2021/04/01 06:24:57;;;;;;;4.43;4.03;;;9.90;1.40;;;10.86;66.22;95690.59;663117;211;24469;-75
2021/04/01 06:27:34;;;;;;;13.13;4.40;;;10.10;1.40;;;11.03;65.33;95692.94;654860;215;24460;-75
2021/04/01 06:32:37;;;;;;;7.50;4.93;;;10.40;1.40;;;11.27;64.22;95692.55;631202;225;25658;-76
2021/04/01 06:35:57;;;;;;;10.85;6.05;;;10.60;1.40;;;11.53;62.54;95694.98;649420;212;31567;-79
2021/04/01 06:38:26;;;;;;;12.73;4.73;;;10.80;1.40;;;11.72;61.84;95695.15;642562;221;23465;-79
2021/04/01 06:40:58;;;;;;;9.67;5.20;;;11.00;1.40;;;11.83;61.62;95692.84;641632;221;24517;-78
2021/04/01 06:43:35;;;;;;;11.10;4.30;;;11.10;1.40;;;12.01;61.60;95695.08;644902;220;24506;-79
2021/04/01 06:46:06;;;;;;;9.75;4.93;;;11.20;1.40;;;12.30;60.97;95694.23;636125;220;31830;-76
2021/04/01 06:48:53;;;;;;;7.97;4.30;;;11.60;1.40;;;12.48;60.88;95689.95;641321;221;23481;-76
2021/04/01 06:51:07;;;;;;;11.38;4.70;;;11.70;1.40;;;12.63;60.01;95694.13;635935;221;31896;-76
2021/04/01 06:53:39;;;;;;;13.37;4.30;;;11.80;1.40;;;12.78;58.11;95696.93;635662;221;31687;-77
2021/04/01 06:56:14;;;;;;;9.63;3.73;;;11.90;1.40;;;12.87;58.17;95697.84;639364;221;24494;-74
2021/04/01 06:58:44;;;;;;;7.83;3.97;;;12.10;1.40;;;13.00;58.25;95693.69;640911;220;25086;-76
2021/04/01 07:01:16;;;;;;;11.57;3.70;;;12.20;1.40;;;13.20;56.05;95697.11;635752;221;31719;-76
2021/04/01 07:03:40;;;;;;;10.45;3.65;;;12.40;1.40;;;13.32;55.75;95695.48;635902;221;31719;-77
2021/04/01 07:06:14;;;;;;;5.77;3.63;;;12.50;1.40;;;13.41;55.70;95695.92;641306;221;23464;-78
2021/04/01 07:11:25;;;;;;;4.73;3.97;;;12.80;1.40;;;13.83;52.45;95694.45;642471;220;24518;-78
2021/04/01 07:13:53;;;;;;;6.87;3.30;;;13.10;1.40;;;14.01;52.00;95697.89;642011;220;24513;-78
2021/04/01 07:22:26;;;;;;;6.50;3.50;;;13.60;1.40;;;14.50;49.04;95700.24;670813;211;23413;-76
2021/04/01 07:30:45;;;;;;;4.43;3.67;;;13.70;1.40;;;14.68;50.00;95699.70;667973;211;23472;-76
2021/04/01 07:32:14;;;;;;;7.80;3.70;;;14.20;1.40;;;15.09;48.38;95699.50;659876;216;24469;-76
2021/04/01 07:36:03;;;;;;;8.75;3.42;;;14.40;1.40;;;15.43;47.75;95699.91;646866;212;36505;-74
2021/04/01 07:46:28;;;;;;;8.23;3.33;;;15.40;1.40;;;16.53;46.84;95694.98;646791;212;31556;-79
2021/04/01 07:48:57;;;;;;;7.40;3.45;;;15.70;1.40;;;16.77;45.56;95699.30;642274;220;31785;-79
2021/04/01 07:53:58;;;;;;;5.33;4.00;;;16.00;1.40;;;17.02;44.19;95689.91;658238;216;23465;-79
2021/04/01 07:56:31;;;;;;;6.63;4.50;;;16.10;1.40;;;16.81;44.89;95699.06;642478;221;24575;-79
2021/04/01 07:59:04;;;;;;;4.70;4.20;;;16.00;1.40;;;16.91;44.69;95699.01;674596;211;23443;-78
2021/04/01 08:01:40;;;;;;;5.50;4.67;;;16.00;1.40;;;16.69;44.51;95690.17;670366;211;23372;-79
2021/04/01 08:04:00;;;;;;;7.90;3.73;;;15.80;1.40;;;16.93;45.85;95688.42;671162;211;26552;-76
2021/04/01 08:06:29;;;;;;;6.63;3.60;;;16.10;1.40;;;17.13;45.60;95690.30;649105;216;31531;-77
2021/04/01 08:09:03;;;;;;;6.33;4.10;;;16.20;1.40;;;17.27;44.57;95690.39;654575;216;24474;-77
2021/04/01 08:11:31;;;;;;;6.20;4.37;;;16.30;1.40;;;17.23;44.29;95688.27;670225;211;23444;-77
2021/04/01 08:14:24;;;;;;;8.03;4.30;;;16.30;1.40;;;17.42;45.93;95689.38;672305;211;23763;-77
2021/04/01 08:19:30;;;;;;;5.73;3.70;;;16.60;1.40;;;17.62;44.33;95686.33;618561;226;31882;-75
2021/04/01 08:21:58;;;;;;;7.60;4.90;;;16.80;1.40;;;17.70;45.06;95683.00;614473;230;23607;-75
2021/04/01 08:24:33;;;;;;;11.50;4.37;;;16.80;1.40;;;17.85;43.55;95681.41;617389;230;24234;-76
2021/04/01 08:27:05;;;;;;;9.63;5.20;;;17.00;1.40;;;18.15;44.11;95682.58;602794;233;23673;-75
2021/04/01 08:30:13;;;;;;;8.40;5.57;;;17.30;1.40;;;18.33;43.84;95678.80;604309;234;23639;-74
2021/04/01 08:32:12;;;;;;;6.93;5.20;;;17.40;1.40;;;18.27;42.99;95682.64;620507;230;25674;-75
2021/04/01 08:35:56;;;;;;;10.27;5.50;;;17.60;1.40;;;18.61;42.70;95683.53;645553;216;31557;-74
2021/04/01 08:38:25;;;;;;;7.00;5.07;;;17.70;1.40;;;18.64;42.62;95680.56;636057;220;24647;-73
2021/04/01 08:40:54;;;;;;;11.30;4.97;;;17.80;1.40;;;18.80;42.43;95681.06;637893;221;23516;-74
2021/04/01 08:43:37;;;;;;;8.90;4.77;;;18.00;1.40;;;19.02;43.61;95678.98;638028;220;25632;-74
2021/04/01 08:49:24;;;;;;;8.88;5.65;;;18.50;1.40;;;19.61;42.91;95672.45;645769;212;31610;-75
2021/04/01 08:52:32;;;;;;;10.65;5.78;;;18.70;1.40;;;19.49;42.24;95665.70;649733;216;31542;-74
2021/04/01 08:55:14;;;;;;;9.45;6.07;;;18.80;1.40;;;19.87;41.39;95664.80;649567;216;32131;-74
2021/04/01 08:57:54;;;;;;;12.73;6.60;;;19.10;1.40;;;20.05;40.17;95661.87;635174;221;32295;-74
2021/04/01 09:00:23;;;;;;;11.10;6.95;;;19.20;1.40;;;20.18;40.35;95657.08;635326;220;32415;-75
2021/04/01 09:02:54;;;;;;;10.60;5.93;;;19.30;1.40;;;20.78;39.39;95657.49;649323;216;31805;-75
2021/04/01 09:05:21;;;;;;;11.70;6.80;;;20.00;1.40;;;21.89;36.25;95652.46;663759;211;31372;-75
2021/04/01 09:07:58;;;;;;;12.40;6.27;;;22.20;1.40;;;23.24;35.20;95652.31;671386;211;22417;-73
2021/04/01 09:10:32;;;;;;;12.30;7.87;;;24.40;1.40;;;23.62;34.10;95653.39;654497;216;23482;-73
2021/04/01 09:13:05;;;;;;;10.13;6.60;;;23.80;1.40;;;24.76;32.59;95653.84;667643;211;23471;-74
2021/04/01 09:18:01;;;;;;;8.53;7.00;;;24.60;1.40;;;25.00;33.10;95643.95;671630;211;24453;-74
2021/04/01 09:20:31;;;;;;;9.40;6.40;;;24.50;1.40;;;25.93;32.07;95643.58;670477;211;24474;-75
2021/04/01 09:23:05;;;;;;;12.60;8.00;;;26.10;1.40;;;26.39;30.44;95638.42;670423;211;24424;-74
2021/04/01 09:25:40;;;;;;;8.73;6.97;;;26.00;1.40;;;26.71;29.67;95641.65;664958;211;23472;-74
2021/04/01 09:28:09;;;;;;;11.60;7.30;;;25.90;1.40;;;26.67;29.81;95643.03;654627;215;24353;-74
2021/04/01 09:30:39;;;;;;;9.23;7.47;;;25.80;1.40;;;27.77;28.26;95642.91;649772;215;32400;-74
2021/04/01 09:35:51;;;;;;;11.90;7.15;;;26.50;1.40;;;26.97;28.41;95637.54;647296;216;31562;-75
2021/04/01 09:38:21;;;;;;;7.50;6.33;;;25.20;1.40;;;27.13;29.63;95637.31;638821;221;22603;-75
2021/04/01 09:40:49;;;;;;;8.47;7.03;;;25.70;1.40;;;27.07;28.41;95638.23;644029;221;23534;-74
2021/04/01 09:43:19;;;;;;;9.30;6.90;;;25.90;1.40;;;28.04;29.38;95630.48;642205;220;23590;-75
2021/04/01 09:45:48;;;;;;;8.27;7.10;;;26.60;1.40;;;28.23;28.20;95629.84;641689;221;23537;-75
2021/04/01 09:48:17;;;;;;;10.97;6.13;;;27.00;1.40;;;27.97;27.71;95632.56;643114;220;23569;-74
2021/04/01 09:50:46;;;;;;;9.20;7.07;;;26.30;1.40;;;28.49;27.32;95624.39;647575;220;24365;-75
2021/04/01 09:53:19;;;;;;;7.67;6.47;;;26.80;1.40;;;28.52;28.03;95623.20;655513;216;23683;-74
2021/04/01 09:55:49;;;;;;;7.13;6.43;;;26.70;1.40;;;28.45;27.76;95622.86;672072;211;23422;-74
2021/04/01 09:58:27;;;;;;;12.00;7.53;;;27.30;1.40;;;29.38;26.95;95621.09;669594;211;28745;-74
2021/04/01 10:01:09;;;;;;;8.30;6.43;;;27.80;1.40;;;29.67;26.65;95626.63;664895;211;23466;-74
2021/04/01 10:03:41;;;;;;;8.23;5.73;;;26.80;1.40;;;29.47;26.73;95628.28;668587;211;23455;-75
2021/04/01 10:06:10;;;;;;;6.80;5.60;;;27.20;1.40;;;30.68;25.79;95620.83;668423;211;24463;-75
2021/04/01 10:08:39;;;;;;;7.07;6.17;;;28.00;1.40;;;31.78;25.42;95618.05;670321;211;23417;-75
2021/04/01 10:11:25;;;;;;;8.97;6.80;;;29.20;1.40;;;31.56;24.83;95622.38;666537;211;23440;-73
2021/04/01 10:16:31;;;;;;;9.83;6.80;;;29.60;1.40;;;34.07;23.56;95612.22;650714;214;31609;-76
2021/04/01 10:19:01;;;;;;;11.17;7.00;;;30.80;1.40;;;32.41;23.75;95609.59;640204;221;23540;-73
2021/04/01 10:24:07;;;;;;;7.90;6.40;;;27.40;1.40;;;34.18;23.56;95599.42;650632;216;31575;-75
2021/04/01 10:26:38;;;;;;;7.67;6.47;;;29.80;1.40;;;31.94;23.55;95598.36;631083;221;22520;-73
2021/04/01 10:29:11;;;;;;;10.07;6.67;;;27.70;1.40;;;32.71;23.26;95590.23;643917;219;23566;-75
2021/04/01 10:31:48;;;;;;;11.60;6.50;;;29.10;1.40;;;34.29;21.95;95586.96;654100;215;42403;-74
2021/04/01 10:35:50;;;;;;;9.05;7.00;;;29.50;1.40;;;29.89;25.19;95584.87;650939;216;31727;-73
2021/04/01 10:38:20;;;;;;;9.23;6.33;;;26.90;1.40;;;31.36;24.76;95582.23;643055;221;22478;-75
2021/04/01 10:40:49;;;;;;;9.20;6.53;;;28.00;1.40;;;32.30;23.89;95574.91;654294;216;23505;-76
2021/04/01 10:45:59;;;;;;;10.15;5.72;;;30.20;1.40;;;35.16;21.74;95561.72;617477;226;32012;-74
2021/04/01 10:48:36;;;;;;;7.95;4.97;;;30.90;1.40;;;33.71;22.19;95556.80;609698;230;32244;-74
2021/04/01 10:51:07;;;;;;;11.67;5.20;;;29.90;1.40;;;33.21;23.32;95557.80;629364;224;22542;-77
2021/04/01 10:53:34;;;;;;;9.25;5.40;;;29.20;1.40;;;32.91;22.21;95554.05;613380;229;32128;-77
2021/04/01 10:56:04;;;;;;;7.37;5.70;;;29.30;1.40;;;33.61;23.41;95550.05;617976;230;22622;-77
2021/04/01 10:58:33;;;;;;;8.60;5.13;;;30.40;1.40;;;32.65;22.61;95547.58;616877;230;27838;-77
2021/04/01 11:01:02;;;;;;;6.90;5.93;;;29.30;1.40;;;32.19;23.25;95552.95;625726;227;23560;-77
2021/04/01 11:03:32;;;;;;;8.73;5.87;;;28.20;1.40;;;29.95;25.32;95543.02;610741;229;32026;-77
2021/04/01 11:06:01;;;;;;;10.27;5.03;;;25.40;1.40;;;28.37;27.13;95537.41;629045;225;22494;-77
2021/04/01 11:08:30;;;;;;;10.70;5.03;;;24.60;1.40;;;26.83;28.69;95540.02;628334;225;23547;-77
2021/04/01 11:11:00;;;;;;;8.20;5.20;;;23.80;1.40;;;26.40;29.17;95537.91;626915;225;23589;-78
2021/04/01 11:13:32;;;;;;;7.70;5.30;;;23.70;1.40;;;25.87;30.31;95540.26;629607;225;23751;-78
2021/04/01 11:16:03;;;;;;;7.03;5.37;;;23.80;1.40;;;26.02;29.92;95535.37;620821;230;23606;-78
2021/04/01 11:18:32;;;;;;;7.60;5.80;;;24.00;1.40;;;26.23;30.14;95533.98;630973;224;23492;-78
2021/04/01 11:21:02;;;;;;;9.70;5.83;;;24.30;1.40;;;25.62;31.34;95528.23;616012;229;23610;-77
2021/04/01 11:23:30;;;;;;;8.87;5.33;;;23.90;1.40;;;25.69;30.92;95522.28;629709;226;23558;-77
2021/04/01 11:25:59;;;;;;;12.70;6.10;;;24.00;1.40;;;25.92;30.61;95519.72;621809;226;24634;-77
2021/04/01 11:28:35;;;;;;;8.60;5.53;;;24.50;1.40;;;27.93;28.19;95517.89;616729;230;23611;-75
2021/04/01 11:31:04;;;;;;;5.77;3.90;;;26.90;1.40;;;29.79;26.67;95510.53;616870;229;23628;-76
2021/04/01 11:38:43;;;;;;;9.30;4.70;;;28.20;1.40;;;32.01;23.88;95501.81;646904;216;31605;-75
2021/04/01 11:41:13;;;;;;;8.13;4.70;;;29.50;1.40;;;33.74;21.99;95489.59;642383;220;23500;-75
2021/04/01 11:43:42;;;;;;;5.70;4.12;;;30.70;1.40;;;32.67;22.14;95495.79;636061;221;31866;-75
2021/04/01 11:46:15;;;;;;;8.25;4.60;;;28.80;1.40;;;33.26;22.13;95492.19;634261;221;31707;-76
2021/04/01 11:48:44;;;;;;;7.93;4.60;;;29.50;1.40;;;33.98;22.12;95491.98;633077;220;31675;-75
2021/04/01 11:51:29;;;;;;;7.35;4.40;;;29.50;1.40;;;32.80;22.75;95494.81;633785;221;31718;-75
2021/04/01 11:54:13;;;;;;;8.02;4.60;;;29.40;1.40;;;30.66;24.21;95498.38;647054;216;31543;-75
2021/04/01 11:56:44;;;;;;;7.17;4.23;;;26.60;1.40;;;28.26;26.42;95491.07;639318;221;22460;-75
2021/04/01 11:59:12;;;;;;;6.57;4.77;;;25.00;1.40;;;28.44;25.68;95489.41;641079;221;23522;-75
2021/04/01 12:01:48;;;;;;;7.53;4.40;;;26.50;1.40;;;29.56;25.09;95494.06;639125;221;23559;-76
2021/04/01 12:04:18;;;;;;;4.97;4.43;;;27.40;1.40;;;30.80;23.85;95489.14;642780;221;23498;-76
2021/04/01 12:06:47;;;;;;;5.73;5.10;;;28.50;1.40;;;31.25;24.03;95485.78;641777;221;26319;-77
2021/04/01 12:09:17;;;;;;;8.23;4.68;;;28.60;1.40;;;31.65;23.68;95481.16;637322;221;31875;-77
2021/04/01 12:11:46;;;;;;;8.10;4.93;;;28.70;1.40;;;33.25;22.03;95471.35;643937;220;22477;-77
2021/04/01 12:14:15;;;;;;;5.47;4.70;;;29.80;1.40;;;32.00;22.98;95467.23;637392;221;31745;-76
2021/04/01 12:16:44;;;;;;;5.95;4.40;;;28.30;1.40;;;30.83;23.69;95468.91;635918;221;31736;-77
2021/04/01 12:19:14;;;;;;;7.55;4.47;;;27.40;1.40;;;29.25;25.27;95467.34;633901;220;31751;-77
2021/04/01 12:21:43;;;;;;;5.83;5.00;;;26.10;1.40;;;29.39;25.30;95465.61;640498;221;22547;-77
2021/04/01 12:24:12;;;;;;;5.43;3.50;;;26.60;1.40;;;29.25;25.73;95461.91;639930;220;23522;-77
2021/04/01 12:26:46;;;;;;;6.90;4.17;;;26.60;1.40;;;29.08;26.23;95451.83;630516;223;23581;-77
2021/04/01 12:29:15;;;;;;;4.87;3.60;;;26.90;1.40;;;29.96;24.65;95446.13;623170;226;31956;-77
2021/04/01 12:31:46;;;;;;;4.73;4.27;;;26.60;1.40;;;28.75;25.60;95441.94;629574;224;22532;-77
2021/04/01 12:35:59;;;;;;;5.40;4.30;;;25.70;1.40;;;27.86;26.45;95437.83;646361;216;31670;-75
2021/04/01 12:38:31;;;;;;;7.03;4.07;;;25.10;1.40;;;27.97;26.22;95439.12;636679;221;31958;-75
2021/04/01 12:41:01;;;;;;;5.20;3.70;;;25.40;1.40;;;27.83;26.56;95434.27;643676;221;22529;-75
2021/04/01 12:43:34;;;;;;;7.30;4.30;;;25.40;1.40;;;27.55;26.67;95431.50;636704;221;31789;-74
2021/04/01 12:46:08;;;;;;;5.47;3.90;;;24.20;1.40;;;26.94;27.80;95434.39;642775;221;22481;-74